Time;durP1;ratioP1;P1;durP2;ratioP2;P2;SDS_P1;SDS_P2;PMS_P1;PMS_P2;Temp;Humidity;BMP_temperature;BMP_pressure;BME280_temperature;BME280_humidity;BME280_pressure;Samples;Min_cycle;Max_cycle;Signal;HPM_P1;HPM_P2
2022/12/26 00:01:37;;;;;;;0.10;0.10;;;10.20;99.90;226.50;231333.00;;;;5042372;28;20537;-75
2022/12/26 00:04:06;;;;;;;0.10;0.10;;;10.10;99.90;226.50;231333.00;;;;5024495;28;20215;-75
2022/12/26 00:06:54;;;;;;;0.10;0.10;;;10.20;99.90;226.50;231333.00;;;;5044205;28;20590;-75
2022/12/26 00:09:22;;;;;;;0.10;0.10;;;10.20;99.90;226.50;231333.00;;;;5035257;28;20685;-74
2022/12/26 00:11:51;;;;;;;0.10;0.10;;;10.20;99.90;226.50;231333.00;;;;5046232;28;20615;-75
2022/12/26 00:14:20;;;;;;;0.10;0.10;;;10.20;99.90;226.50;231333.00;;;;5033486;28;20233;-74
2022/12/26 00:16:48;;;;;;;0.10;0.10;;;10.20;99.90;226.50;231333.00;;;;5038569;28;20277;-75
2022/12/26 00:19:16;;;;;;;0.10;0.10;;;10.20;99.90;226.50;231333.00;;;;5044807;28;20571;-74
2022/12/26 00:21:44;;;;;;;0.00;0.00;;;10.20;99.90;226.50;231333.00;;;;5038762;28;20606;-74
2022/12/26 00:24:12;;;;;;;0.00;0.00;;;10.20;99.90;226.50;231333.00;;;;5045595;28;20279;-75
2022/12/26 00:26:40;;;;;;;0.10;0.10;;;10.20;99.90;226.50;231333.00;;;;5038547;28;20218;-75
2022/12/26 00:29:08;;;;;;;0.00;0.00;;;10.20;99.90;226.50;231333.00;;;;5040438;28;20203;-75
2022/12/26 00:31:37;;;;;;;0.00;0.00;;;10.20;99.90;226.50;231333.00;;;;5043112;28;20231;-75
2022/12/26 00:34:05;;;;;;;0.10;0.10;;;10.30;99.90;226.50;231333.00;;;;5034007;28;20203;-74
2022/12/26 00:36:34;;;;;;;0.10;0.10;;;10.30;99.90;226.50;231333.00;;;;5042062;28;20218;-74
2022/12/26 00:39:03;;;;;;;0.10;0.10;;;10.30;99.90;226.50;231333.00;;;;5024753;28;20203;-74
2022/12/26 00:41:32;;;;;;;0.10;0.10;;;10.30;99.90;226.50;231333.00;;;;5046013;28;20194;-74
2022/12/26 00:44:00;;;;;;;0.10;0.10;;;10.30;99.90;226.50;231333.00;;;;5043784;28;20210;-74
2022/12/26 00:46:28;;;;;;;0.00;0.00;;;10.30;99.90;226.50;231333.00;;;;5049909;28;20214;-74
2022/12/26 00:48:57;;;;;;;0.00;0.00;;;10.30;99.90;226.50;231333.00;;;;5042290;28;20199;-74
2022/12/26 00:51:26;;;;;;;0.10;0.10;;;10.20;99.90;226.50;231333.00;;;;5045362;28;20199;-74
2022/12/26 00:53:54;;;;;;;0.10;0.10;;;10.30;99.90;226.50;231333.00;;;;5039162;28;20207;-74
2022/12/26 00:56:22;;;;;;;0.10;0.10;;;10.30;99.90;226.50;231333.00;;;;5045328;28;20222;-74
2022/12/26 00:58:50;;;;;;;0.10;0.10;;;10.30;99.90;226.50;231333.00;;;;5044288;28;20195;-75
2022/12/26 01:01:21;;;;;;;0.00;0.00;;;10.30;99.90;226.50;231333.00;;;;5043641;28;20202;-74
2022/12/26 01:03:51;;;;;;;0.03;0.03;;;10.30;99.90;226.50;231333.00;;;;5030437;28;20226;-75
2022/12/26 01:06:20;;;;;;;0.10;0.10;;;10.30;99.90;226.50;231333.00;;;;5042637;28;20238;-75
2022/12/26 01:08:48;;;;;;;0.10;0.10;;;10.30;99.90;226.50;231333.00;;;;5045113;28;20573;-74
2022/12/26 01:11:38;;;;;;;0.00;0.00;;;10.30;99.90;226.50;231333.00;;;;5041316;28;20282;-74
2022/12/26 01:14:07;;;;;;;0.10;0.10;;;10.30;99.90;226.50;231333.00;;;;5047327;28;20198;-74
2022/12/26 01:16:36;;;;;;;0.10;0.10;;;10.30;99.90;226.50;231333.00;;;;5033707;28;20223;-74
2022/12/26 01:19:05;;;;;;;0.10;0.10;;;10.30;99.90;226.50;163050.00;;;;5041667;28;20202;-74
2022/12/26 01:21:35;;;;;;;0.00;0.00;;;10.30;99.90;226.50;231333.00;;;;5041649;28;20203;-74
2022/12/26 01:24:04;;;;;;;0.10;0.10;;;10.30;99.90;226.50;231333.00;;;;5016735;28;20215;-74
2022/12/26 01:26:34;;;;;;;0.10;0.10;;;10.30;99.90;226.50;231333.00;;;;5040170;28;20257;-74
2022/12/26 01:29:02;;;;;;;0.10;0.10;;;10.40;99.90;226.50;231333.00;;;;5046947;28;20202;-75
2022/12/26 01:31:30;;;;;;;0.10;0.10;;;10.30;99.90;226.50;231333.00;;;;5023577;28;20613;-74
2022/12/26 01:33:58;;;;;;;0.10;0.10;;;10.30;99.90;226.50;231333.00;;;;5033667;28;20207;-74
2022/12/26 01:36:26;;;;;;;0.10;0.10;;;10.20;99.90;226.50;231333.00;;;;5041781;28;20218;-74
2022/12/26 01:38:55;;;;;;;0.08;0.08;;;10.20;99.90;226.50;231333.00;;;;5041188;28;20599;-74
2022/12/26 01:41:23;;;;;;;0.10;0.10;;;10.20;99.90;226.50;231333.00;;;;5046230;28;20199;-74
2022/12/26 01:43:56;;;;;;;0.10;0.10;;;10.20;99.90;226.50;231333.00;;;;5039925;28;20191;-74
2022/12/26 01:46:31;;;;;;;0.10;0.10;;;10.30;99.90;226.50;231333.00;;;;5033867;28;20690;-75
2022/12/26 01:49:07;;;;;;;0.10;0.10;;;10.20;99.90;226.50;231333.00;;;;5041365;28;20206;-74
2022/12/26 01:51:41;;;;;;;0.10;0.10;;;10.30;99.90;226.50;231333.00;;;;5044622;28;20198;-74
2022/12/26 01:54:13;;;;;;;0.10;0.10;;;10.30;99.90;226.50;231333.00;;;;5036305;28;20203;-74
2022/12/26 01:57:04;;;;;;;0.10;0.10;;;10.30;99.90;226.50;231333.00;;;;5034291;28;20302;-74
2022/12/26 01:59:38;;;;;;;0.10;0.10;;;10.30;99.90;226.50;162826.00;;;;5039314;28;20731;-75
2022/12/26 02:02:06;;;;;;;0.10;0.10;;;10.40;99.90;226.50;231333.00;;;;5044405;28;20222;-75
2022/12/26 02:07:26;;;;;;;0.00;0.00;;;10.30;99.90;226.50;231333.00;;;;5034598;28;20972;-74
2022/12/26 02:09:56;;;;;;;0.00;0.00;;;10.30;99.90;226.50;162842.00;;;;5037866;28;20199;-74
2022/12/26 02:12:29;;;;;;;0.00;0.00;;;10.40;99.90;226.50;231333.00;;;;5044002;28;20221;-74
2022/12/26 02:15:08;;;;;;;0.10;0.10;;;10.40;99.90;226.50;231333.00;;;;5033795;28;20678;-74
2022/12/26 02:17:38;;;;;;;0.10;0.10;;;10.30;99.90;226.50;231333.00;;;;5026379;28;20215;-74
2022/12/26 02:20:18;;;;;;;0.00;0.00;;;10.40;99.90;226.50;231333.00;;;;5038869;28;20199;-74
2022/12/26 02:23:45;;;;;;;0.00;0.00;;;10.40;99.90;226.50;231333.00;;;;5036462;28;20666;-74
2022/12/26 02:27:02;;;;;;;0.05;0.05;;;10.40;99.90;226.50;231333.00;;;;5043669;28;20222;-74
2022/12/26 02:30:28;;;;;;;0.00;0.00;;;10.40;99.90;226.50;231333.00;;;;5034339;28;20255;-76
2022/12/26 02:33:24;;;;;;;0.00;0.00;;;10.40;99.90;226.50;162816.00;;;;4960515;28;20577;-74
2022/12/26 02:36:34;;;;;;;0.00;0.00;;;10.30;99.90;226.50;231333.00;;;;5034908;28;20218;-74
2022/12/26 02:39:27;;;;;;;0.00;0.00;;;10.30;99.90;226.50;231333.00;;;;5031145;28;20262;-73
2022/12/26 02:42:28;;;;;;;0.10;0.10;;;10.30;99.90;226.50;231333.00;;;;5038082;28;20555;-74
2022/12/26 02:48:07;;;;;;;0.10;0.10;;;10.30;99.90;226.50;231333.00;;;;5024802;28;20617;-74
2022/12/26 03:14:10;;;;;;;0.10;0.10;;;10.10;99.90;226.50;231333.00;;;;5037547;28;20194;-71
2022/12/26 03:19:29;;;;;;;0.00;0.00;;;10.10;99.90;226.50;231333.00;;;;5031028;28;20735;-71
2022/12/26 03:22:29;;;;;;;0.05;0.05;;;10.10;99.90;226.50;231333.00;;;;5040986;28;20213;-70
2022/12/26 03:27:33;;;;;;;0.00;0.00;;;10.10;99.90;226.50;231333.00;;;;5036854;28;20225;-71
2022/12/26 03:32:47;;;;;;;0.00;0.00;;;10.10;99.90;226.50;231333.00;;;;5030883;28;20245;-74
2022/12/26 03:35:16;;;;;;;0.10;0.10;;;10.10;99.90;226.50;231333.00;;;;5034115;28;20190;-73
2022/12/26 03:37:55;;;;;;;0.10;0.10;;;10.10;99.90;226.50;231333.00;;;;5038818;28;20249;-73
2022/12/26 04:19:41;;;;;;;0.10;0.10;;;10.20;99.90;226.50;231333.00;;;;5040691;28;20206;-71
2022/12/26 04:45:27;;;;;;;0.08;0.08;;;10.40;99.90;226.50;231333.00;;;;5038223;28;20609;-71
2022/12/26 04:50:51;;;;;;;0.05;0.05;;;10.50;99.90;226.50;231333.00;;;;5042076;28;20553;-71
2022/12/26 04:53:20;;;;;;;0.10;0.10;;;10.50;99.90;226.50;231333.00;;;;5042456;28;20489;-71
2022/12/26 04:55:48;;;;;;;0.00;0.00;;;10.50;99.90;226.50;231333.00;;;;5028600;28;20223;-71
2022/12/26 04:58:17;;;;;;;0.10;0.10;;;10.50;99.90;226.50;231333.00;;;;5028125;28;20191;-71
2022/12/26 05:00:46;;;;;;;0.10;0.10;;;10.60;99.90;226.50;231333.00;;;;5045230;28;20198;-73
2022/12/26 05:11:35;;;;;;;0.00;0.00;;;10.60;99.90;226.50;231333.00;;;;5035617;28;20199;-72
2022/12/26 05:14:03;;;;;;;0.10;0.10;;;10.60;99.90;226.50;231333.00;;;;5050098;28;20277;-70
2022/12/26 05:30:28;;;;;;;0.10;0.10;;;10.60;99.90;226.50;231333.00;;;;5036949;28;20277;-70
2022/12/26 05:35:43;;;;;;;0.10;0.10;;;10.50;99.90;226.50;231333.00;;;;5022024;28;20227;-73
2022/12/26 05:38:11;;;;;;;0.10;0.10;;;10.50;99.90;226.50;231333.00;;;;5046140;28;20211;-71
2022/12/26 05:40:39;;;;;;;0.10;0.10;;;10.50;99.90;226.50;231333.00;;;;5036759;28;20261;-71
2022/12/26 05:43:07;;;;;;;0.10;0.10;;;10.60;99.90;226.50;231333.00;;;;5041595;28;20203;-71
2022/12/26 05:45:35;;;;;;;0.03;0.03;;;10.60;99.90;226.50;231333.00;;;;5037342;28;20206;-72
2022/12/26 05:48:05;;;;;;;0.00;0.00;;;10.60;99.90;226.50;231333.00;;;;5048592;28;20672;-72
2022/12/26 05:50:33;;;;;;;0.00;0.00;;;10.60;99.90;226.50;231333.00;;;;5040957;28;20203;-72
2022/12/26 05:53:02;;;;;;;0.00;0.00;;;10.50;99.90;226.50;231333.00;;;;5040518;28;20265;-72
2022/12/26 05:55:30;;;;;;;0.10;0.10;;;10.50;99.90;226.50;231333.00;;;;5039544;28;20195;-71
2022/12/26 05:58:00;;;;;;;0.10;0.10;;;10.40;99.90;226.50;231333.00;;;;5040536;28;20204;-71
2022/12/26 06:00:29;;;;;;;0.10;0.10;;;10.40;99.90;226.50;231333.00;;;;5044266;28;20194;-71
2022/12/26 06:03:00;;;;;;;0.00;0.00;;;10.40;99.90;226.50;231333.00;;;;5035079;28;20225;-72
2022/12/26 06:05:30;;;;;;;0.10;0.10;;;10.40;99.90;226.50;231333.00;;;;5041032;28;20244;-71
2022/12/26 06:07:58;;;;;;;0.10;0.10;;;10.50;99.90;226.50;231333.00;;;;5042343;28;20218;-72
2022/12/26 06:10:28;;;;;;;0.00;0.00;;;10.50;99.90;226.50;231333.00;;;;5040796;28;20194;-71
2022/12/26 06:12:56;;;;;;;0.00;0.00;;;10.50;99.90;226.50;231333.00;;;;5035632;28;20195;-72
2022/12/26 06:15:24;;;;;;;0.10;0.10;;;10.50;99.90;226.50;231333.00;;;;5041816;28;20747;-71
2022/12/26 06:17:54;;;;;;;0.10;0.10;;;10.50;99.90;9.80;93079.00;;;;5043668;28;20194;-71
2022/12/26 06:20:22;;;;;;;0.10;0.10;;;10.50;99.90;10.00;92543.00;;;;5042934;28;20198;-71
2022/12/26 06:22:52;;;;;;;0.10;0.10;;;10.50;99.90;9.50;93425.00;;;;5043798;28;20201;-72
2022/12/26 06:25:20;;;;;;;0.10;0.10;;;10.50;99.90;10.00;92830.00;;;;5031223;28;20203;-72
2022/12/26 06:27:48;;;;;;;0.00;0.00;;;10.50;99.90;9.60;93305.00;;;;5043785;28;20226;-72
2022/12/26 06:30:16;;;;;;;0.00;0.00;;;10.60;99.90;9.80;93002.00;;;;5037003;28;20256;-72
2022/12/26 06:32:44;;;;;;;0.10;0.10;;;10.60;99.90;9.80;92977.00;;;;5035905;28;20218;-72
2022/12/26 06:35:12;;;;;;;0.10;0.10;;;10.60;99.90;10.10;92871.00;;;;5032036;28;20207;-72
2022/12/26 06:37:40;;;;;;;0.10;0.10;;;10.60;99.90;10.10;92840.00;;;;5038104;28;20638;-72
2022/12/26 06:40:11;;;;;;;0.10;0.10;;;10.60;99.90;9.90;92883.00;;;;5040883;28;20202;-71
2022/12/26 06:42:39;;;;;;;0.00;0.00;;;10.60;99.90;226.50;162590.00;;;;5039733;28;20202;-71
2022/12/26 06:45:08;;;;;;;0.03;0.03;;;10.60;99.90;226.50;231333.00;;;;5035247;28;20195;-72
2022/12/26 06:47:36;;;;;;;0.10;0.10;;;10.60;99.90;226.50;231333.00;;;;5033725;28;20214;-71
2022/12/26 06:50:04;;;;;;;0.10;0.10;;;10.60;99.90;226.50;231333.00;;;;5045369;28;20248;-71
2022/12/26 06:52:32;;;;;;;0.10;0.10;;;10.70;99.90;226.50;231333.00;;;;5027719;28;20399;-72
2022/12/26 06:55:00;;;;;;;0.10;0.10;;;10.70;99.90;226.50;231333.00;;;;5034685;28;20262;-71
2022/12/26 06:57:29;;;;;;;0.00;0.00;;;10.80;99.90;226.50;231333.00;;;;5042752;28;20244;-71
2022/12/26 06:59:57;;;;;;;0.00;0.00;;;10.90;99.90;226.50;231333.00;;;;5039530;28;20256;-71
2022/12/26 07:02:25;;;;;;;0.03;0.03;;;10.90;99.90;226.50;231333.00;;;;5039256;28;20195;-72
2022/12/26 07:04:53;;;;;;;0.10;0.10;;;10.90;99.90;226.50;231333.00;;;;5043524;28;20234;-72
2022/12/26 07:07:21;;;;;;;0.00;0.00;;;10.90;99.90;226.50;231333.00;;;;5024437;28;20230;-71
2022/12/26 07:09:49;;;;;;;0.10;0.10;;;10.90;99.90;226.50;231333.00;;;;5039398;28;20199;-71
2022/12/26 07:12:19;;;;;;;0.10;0.10;;;11.00;99.90;226.50;231333.00;;;;5036527;28;20609;-72
2022/12/26 07:14:49;;;;;;;0.10;0.10;;;11.00;99.90;226.50;231333.00;;;;5038050;28;20249;-71
2022/12/26 07:17:16;;;;;;;0.10;0.10;;;11.10;99.90;226.50;231333.00;;;;5029966;28;20222;-71
2022/12/26 07:19:44;;;;;;;0.10;0.10;;;11.10;99.90;226.50;231333.00;;;;5036952;28;20632;-71
2022/12/26 07:22:12;;;;;;;0.10;0.10;;;11.10;99.90;226.50;231333.00;;;;5038788;28;20207;-71
2022/12/26 07:24:40;;;;;;;0.10;0.10;;;11.20;99.90;226.50;231333.00;;;;5038944;28;20232;-71
2022/12/26 07:27:08;;;;;;;0.00;0.00;;;11.20;99.90;226.50;231333.00;;;;5035770;28;20261;-72
2022/12/26 07:29:36;;;;;;;0.10;0.10;;;11.20;99.90;226.50;231333.00;;;;5033314;28;20252;-71
2022/12/26 07:32:06;;;;;;;0.05;0.05;;;11.20;99.90;226.50;231333.00;;;;5035479;28;20200;-72
2022/12/26 07:34:34;;;;;;;0.10;0.10;;;11.20;99.90;226.50;231333.00;;;;5021604;28;20199;-71
2022/12/26 07:37:02;;;;;;;0.10;0.10;;;11.20;99.90;226.50;231333.00;;;;5024621;28;20710;-71
2022/12/26 07:39:30;;;;;;;0.00;0.00;;;11.20;99.90;226.50;231333.00;;;;5039944;28;20194;-72
2022/12/26 07:41:57;;;;;;;0.10;0.10;;;11.20;99.90;226.50;231333.00;;;;5036056;28;20616;-73
2022/12/26 07:44:25;;;;;;;0.00;0.00;;;11.20;99.90;226.50;231333.00;;;;5042963;28;20222;-71
2022/12/26 07:46:53;;;;;;;0.10;0.10;;;11.30;99.90;226.50;231333.00;;;;5046473;28;20697;-71
2022/12/26 07:49:23;;;;;;;0.10;0.10;;;11.30;99.90;226.50;231333.00;;;;5033988;28;20205;-71
2022/12/26 07:51:51;;;;;;;0.00;0.00;;;11.20;99.90;226.50;231333.00;;;;5046740;28;20244;-72
2022/12/26 07:54:19;;;;;;;0.00;0.00;;;11.30;99.90;226.50;231333.00;;;;5034590;28;20198;-71
2022/12/26 07:56:47;;;;;;;0.00;0.00;;;11.20;99.90;226.50;231333.00;;;;5049847;28;20207;-71
2022/12/26 07:59:17;;;;;;;0.00;0.00;;;11.20;99.90;226.50;231333.00;;;;5043111;28;20198;-72
2022/12/26 08:01:45;;;;;;;0.00;0.00;;;11.20;99.90;226.50;231333.00;;;;5029124;28;20196;-71
2022/12/26 08:04:14;;;;;;;0.10;0.10;;;11.30;99.90;226.50;231333.00;;;;5032443;28;20205;-72
2022/12/26 08:06:45;;;;;;;0.10;0.10;;;11.20;99.90;226.50;231333.00;;;;5041882;28;20246;-71
2022/12/26 08:09:16;;;;;;;0.08;0.08;;;11.20;99.90;226.50;231333.00;;;;5049823;28;20280;-71
2022/12/26 08:11:44;;;;;;;0.10;0.10;;;11.20;99.90;226.50;231333.00;;;;5036850;28;20199;-71
2022/12/26 08:14:15;;;;;;;0.00;0.00;;;11.30;99.90;226.50;231333.00;;;;5043337;28;20201;-71
2022/12/26 08:16:44;;;;;;;0.10;0.10;;;11.20;99.90;226.50;231333.00;;;;5045706;28;20749;-71
2022/12/26 08:19:19;;;;;;;0.10;0.10;;;11.20;99.90;226.50;231333.00;;;;5023809;28;20278;-71
2022/12/26 08:21:49;;;;;;;0.00;0.00;;;11.30;99.90;226.50;231333.00;;;;5037656;28;20210;-72
2022/12/26 08:24:17;;;;;;;0.10;0.10;;;11.30;99.90;226.50;231333.00;;;;5041818;28;20202;-71
2022/12/26 08:26:45;;;;;;;0.10;0.10;;;11.30;99.90;226.50;231333.00;;;;5048714;28;20257;-71
2022/12/26 08:29:13;;;;;;;0.00;0.00;;;11.40;99.90;226.50;231333.00;;;;5044532;28;20230;-71
2022/12/26 08:31:40;;;;;;;0.00;0.00;;;11.40;99.90;226.50;231333.00;;;;5047841;28;20317;-71
2022/12/26 08:34:09;;;;;;;0.10;0.10;;;11.40;99.90;226.50;231333.00;;;;5025279;28;20610;-72
2022/12/26 08:36:37;;;;;;;0.10;0.10;;;11.40;99.90;226.50;231333.00;;;;5040066;28;20210;-71
2022/12/26 08:39:06;;;;;;;0.00;0.00;;;11.50;99.90;226.50;231333.00;;;;5040011;28;20667;-72
2022/12/26 08:41:34;;;;;;;0.10;0.10;;;11.40;99.90;226.50;231333.00;;;;5046659;28;20198;-72
2022/12/26 08:44:03;;;;;;;0.08;0.08;;;11.40;99.90;226.50;231333.00;;;;5043542;28;20196;-72
2022/12/26 08:46:51;;;;;;;0.10;0.10;;;11.50;99.90;226.50;231333.00;;;;5027856;28;20211;-73
2022/12/26 08:49:19;;;;;;;0.03;0.03;;;11.50;99.90;226.50;231333.00;;;;5044566;28;20657;-72
2022/12/26 08:51:48;;;;;;;0.10;0.10;;;11.50;99.90;226.50;231333.00;;;;5027664;28;20289;-73
2022/12/26 08:54:17;;;;;;;0.05;0.05;;;11.60;99.90;226.50;231333.00;;;;5033761;28;20734;-72
2022/12/26 08:56:45;;;;;;;0.00;0.00;;;11.50;99.90;226.50;231333.00;;;;5048953;28;20564;-72
2022/12/26 08:59:13;;;;;;;0.10;0.10;;;11.50;99.90;226.50;231333.00;;;;5043766;28;20599;-72
2022/12/26 09:01:41;;;;;;;0.10;0.10;;;11.60;99.90;226.50;231333.00;;;;5037151;28;20187;-73
2022/12/26 09:04:09;;;;;;;0.10;0.10;;;11.50;99.90;226.50;231333.00;;;;5033877;28;20207;-71
2022/12/26 09:06:39;;;;;;;0.00;0.00;;;11.50;99.90;226.50;231333.00;;;;5040000;28;20600;-73
2022/12/26 09:09:10;;;;;;;0.08;0.08;;;11.50;99.90;226.50;231333.00;;;;5037388;28;20223;-73
2022/12/26 09:11:41;;;;;;;0.00;0.00;;;11.60;99.90;226.50;231333.00;;;;5044117;28;20203;-73
2022/12/26 09:14:10;;;;;;;0.08;0.08;;;11.60;99.90;226.50;231333.00;;;;5049917;28;20217;-73
2022/12/26 09:16:43;;;;;;;0.10;0.10;;;11.60;99.90;226.50;231333.00;;;;5041344;28;20268;-73
2022/12/26 09:19:18;;;;;;;0.00;0.00;;;11.70;99.90;226.50;231333.00;;;;5037553;28;20194;-73
2022/12/26 09:21:48;;;;;;;0.00;0.00;;;11.60;99.90;226.50;231333.00;;;;5038772;28;20208;-72
2022/12/26 09:24:18;;;;;;;0.10;0.10;;;11.70;99.90;226.50;231333.00;;;;5041548;28;20598;-72
2022/12/26 09:26:47;;;;;;;0.10;0.10;;;11.70;99.90;226.50;231333.00;;;;5041476;28;20207;-72
2022/12/26 09:29:15;;;;;;;0.00;0.00;;;11.70;99.90;226.50;231333.00;;;;5038672;28;20241;-73
2022/12/26 09:31:43;;;;;;;0.00;0.00;;;11.70;99.90;226.50;231333.00;;;;5046136;28;20655;-73
2022/12/26 09:34:11;;;;;;;0.10;0.10;;;11.70;99.90;226.50;231333.00;;;;5032625;28;20552;-72
2022/12/26 09:36:39;;;;;;;0.10;0.10;;;11.70;99.90;226.50;231333.00;;;;5034842;28;20265;-74
2022/12/26 09:39:10;;;;;;;0.10;0.10;;;11.60;99.90;226.50;231333.00;;;;5041491;28;20265;-72
2022/12/26 09:42:01;;;;;;;0.10;0.10;;;11.60;99.90;226.50;231333.00;;;;5037886;28;20202;-72
2022/12/26 09:44:43;;;;;;;0.10;0.10;;;11.50;99.90;226.50;231333.00;;;;5027580;28;20271;-72
2022/12/26 09:47:29;;;;;;;0.03;0.03;;;11.50;99.90;226.50;231333.00;;;;5041487;28;20485;-72
2022/12/26 09:50:07;;;;;;;0.00;0.00;;;11.50;99.90;226.50;231333.00;;;;5038367;28;20226;-72
2022/12/26 09:52:45;;;;;;;0.00;0.00;;;11.50;99.90;226.50;231333.00;;;;5037267;28;20256;-72
2022/12/26 09:55:41;;;;;;;0.00;0.00;;;11.50;99.90;226.50;231333.00;;;;5051421;28;20203;-72
2022/12/26 09:58:24;;;;;;;0.00;0.00;;;11.50;99.90;226.50;231333.00;;;;5051187;28;20281;-72
2022/12/26 10:00:58;;;;;;;0.00;0.00;;;11.50;99.90;226.50;231333.00;;;;5037932;28;20203;-73
2022/12/26 10:03:27;;;;;;;0.10;0.10;;;11.50;99.90;226.50;231333.00;;;;5027265;28;20210;-73
2022/12/26 10:06:11;;;;;;;0.10;0.10;;;11.40;99.90;226.50;231333.00;;;;5040653;28;20222;-72
2022/12/26 10:09:32;;;;;;;0.05;0.05;;;11.40;99.90;226.50;231333.00;;;;5024160;28;20619;-73
2022/12/26 10:12:25;;;;;;;0.10;0.10;;;11.40;99.90;226.50;231333.00;;;;5025379;28;20184;-72
2022/12/26 10:15:02;;;;;;;0.00;0.00;;;11.20;99.90;226.50;231333.00;;;;5041463;28;20202;-73
2022/12/26 10:17:40;;;;;;;0.10;0.10;;;11.20;99.90;226.50;231333.00;;;;5035558;28;20575;-71
2022/12/26 10:20:24;;;;;;;0.10;0.10;;;11.20;99.90;226.50;231333.00;;;;5039915;28;20209;-72
2022/12/26 10:23:31;;;;;;;0.10;0.10;;;11.10;99.90;226.50;231333.00;;;;5051475;28;20252;-72
2022/12/26 10:26:10;;;;;;;0.00;0.00;;;11.10;99.90;226.50;231333.00;;;;5038866;28;20218;-73
2022/12/26 10:28:46;;;;;;;0.00;0.00;;;11.00;99.90;226.50;231333.00;;;;5038989;28;20434;-72
2022/12/26 10:31:26;;;;;;;0.10;0.10;;;11.10;99.90;226.50;231333.00;;;;5022116;28;20608;-72
2022/12/26 10:34:05;;;;;;;0.10;0.10;;;11.10;99.90;226.50;231333.00;;;;5025211;28;20235;-73
2022/12/26 10:36:41;;;;;;;0.00;0.00;;;11.10;99.90;226.50;231333.00;;;;5025438;28;20222;-72
2022/12/26 10:39:20;;;;;;;0.10;0.10;;;11.00;99.90;226.50;231333.00;;;;5032410;28;20691;-72
2022/12/26 10:41:53;;;;;;;0.10;0.10;;;11.10;99.90;226.50;231333.00;;;;5036909;28;20207;-72
2022/12/26 10:44:21;;;;;;;0.05;0.05;;;11.10;99.90;226.50;231333.00;;;;5029166;28;20199;-72
2022/12/26 10:47:13;;;;;;;0.10;0.10;;;11.10;99.90;226.50;231333.00;;;;5042431;28;20218;-72
2022/12/26 10:49:45;;;;;;;0.00;0.00;;;11.10;99.90;226.50;231333.00;;;;5044484;28;20218;-72
2022/12/26 10:52:17;;;;;;;0.00;0.00;;;11.10;99.90;226.50;231333.00;;;;5041141;28;20692;-73
2022/12/26 10:54:51;;;;;;;0.10;0.10;;;11.10;99.90;226.50;231333.00;;;;5040373;28;20241;-72
2022/12/26 10:57:41;;;;;;;0.00;0.00;;;11.20;99.90;226.50;231333.00;;;;5034161;28;20207;-72
2022/12/26 11:00:19;;;;;;;0.10;0.10;;;11.10;99.90;226.50;231333.00;;;;5042076;28;20692;-72
2022/12/26 11:03:04;;;;;;;0.00;0.00;;;11.10;99.90;226.50;231333.00;;;;5041530;28;20194;-72
2022/12/26 11:05:36;;;;;;;0.00;0.00;;;11.20;99.90;226.50;231333.00;;;;5034598;28;20195;-72
2022/12/26 11:08:30;;;;;;;0.10;0.10;;;11.20;99.90;226.50;231333.00;;;;5031151;28;20198;-73
2022/12/26 11:11:06;;;;;;;0.10;0.10;;;11.20;99.90;226.50;231333.00;;;;5047369;28;20569;-72
2022/12/26 11:13:40;;;;;;;0.10;0.10;;;11.20;99.90;226.50;231333.00;;;;5039110;28;20289;-73
2022/12/26 11:16:10;;;;;;;0.00;0.00;;;11.20;99.90;226.50;231333.00;;;;5038469;28;20484;-72
2022/12/26 11:18:50;;;;;;;0.00;0.00;;;11.20;99.90;226.50;231333.00;;;;5029663;28;20250;-74
2022/12/26 11:21:24;;;;;;;0.00;0.00;;;11.20;99.90;226.50;231333.00;;;;5022913;28;20696;-71
2022/12/26 11:24:10;;;;;;;0.10;0.10;;;11.20;99.90;226.50;231333.00;;;;5034442;28;20252;-71
2022/12/26 11:26:38;;;;;;;0.10;0.10;;;11.20;99.90;226.50;231333.00;;;;5033879;28;20318;-70
2022/12/26 11:29:12;;;;;;;0.03;0.03;;;11.20;99.90;226.50;231333.00;;;;5033382;28;20212;-71
2022/12/26 11:31:43;;;;;;;0.00;0.00;;;11.20;99.90;226.50;231333.00;;;;5030368;28;20558;-71
2022/12/26 11:34:22;;;;;;;0.10;0.10;;;11.20;99.90;226.50;231333.00;;;;5040935;28;20282;-71
2022/12/26 11:36:51;;;;;;;0.10;0.10;;;11.20;99.90;226.50;231333.00;;;;5025311;28;20261;-72
2022/12/26 11:39:25;;;;;;;0.10;0.10;;;11.20;99.90;226.50;231333.00;;;;5032246;28;20253;-71
2022/12/26 11:41:55;;;;;;;0.10;0.10;;;11.10;99.90;226.50;231333.00;;;;5038064;28;20225;-71
2022/12/26 11:44:28;;;;;;;0.10;0.10;;;11.10;99.90;226.50;231333.00;;;;5032573;28;20218;-72
2022/12/26 11:47:00;;;;;;;0.10;0.10;;;11.10;99.90;226.50;231333.00;;;;5036141;28;20214;-72
2022/12/26 11:49:35;;;;;;;0.10;0.10;;;11.10;99.90;226.50;231333.00;;;;5039071;28;20236;-71
2022/12/26 11:52:38;;;;;;;0.00;0.00;;;11.10;99.90;226.50;231333.00;;;;5036925;28;20610;-71
2022/12/26 11:55:39;;;;;;;0.00;0.00;;;11.10;99.90;226.50;231333.00;;;;5032511;28;20573;-72
2022/12/26 11:58:19;;;;;;;0.00;0.00;;;11.10;99.90;226.50;231333.00;;;;5039992;28;20206;-71
2022/12/26 12:01:11;;;;;;;0.10;0.10;;;11.10;99.90;226.50;231333.00;;;;5034137;28;20249;-71
2022/12/26 12:03:43;;;;;;;0.00;0.00;;;11.10;99.90;226.50;231333.00;;;;5038379;28;20202;-72
2022/12/26 12:06:38;;;;;;;0.10;0.10;;;11.10;99.90;226.50;231333.00;;;;5035038;28;20257;-72
2022/12/26 12:09:21;;;;;;;0.00;0.00;;;11.10;99.90;226.50;231333.00;;;;5032285;28;20286;-71
2022/12/26 12:11:58;;;;;;;0.10;0.10;;;11.20;99.90;226.50;231333.00;;;;5031341;28;20195;-72
2022/12/26 12:14:46;;;;;;;0.10;0.10;;;11.10;99.90;226.50;231333.00;;;;5032357;28;20570;-71
2022/12/26 12:17:28;;;;;;;0.10;0.10;;;11.10;99.90;226.50;231333.00;;;;5038755;28;20219;-71
2022/12/26 12:20:19;;;;;;;0.10;0.10;;;11.20;99.90;226.50;231333.00;;;;5029718;28;20202;-70
2022/12/26 12:23:25;;;;;;;0.10;0.10;;;11.20;99.90;226.50;231333.00;;;;5042870;28;20202;-72
2022/12/26 12:26:09;;;;;;;0.05;0.05;;;11.20;99.90;226.50;231333.00;;;;5031973;28;20227;-71
2022/12/26 12:29:03;;;;;;;0.10;0.10;;;11.20;99.90;226.50;231333.00;;;;5036294;28;20270;-70
2022/12/26 12:31:50;;;;;;;0.10;0.10;;;11.20;99.90;226.50;231333.00;;;;5036755;28;20280;-72
2022/12/26 12:34:35;;;;;;;0.10;0.10;;;11.20;99.90;226.50;231333.00;;;;5046158;28;20292;-73
2022/12/26 12:37:23;;;;;;;0.10;0.10;;;11.20;99.90;226.50;231333.00;;;;5037410;28;20249;-73
2022/12/26 12:40:04;;;;;;;0.10;0.10;;;11.10;99.90;226.50;231333.00;;;;5030539;28;20211;-73
2022/12/26 12:42:48;;;;;;;0.00;0.00;;;11.00;99.90;226.50;231333.00;;;;5040914;28;20581;-73
2022/12/26 12:45:26;;;;;;;0.10;0.10;;;11.10;99.90;226.50;231333.00;;;;5039759;28;20206;-73
2022/12/26 12:48:23;;;;;;;0.10;0.10;;;11.10;99.90;226.50;231333.00;;;;5033642;28;20203;-73
2022/12/26 12:51:03;;;;;;;0.10;0.10;;;11.10;99.90;226.50;231333.00;;;;5035853;28;20255;-74
2022/12/26 12:53:54;;;;;;;0.10;0.10;;;11.10;99.90;226.50;231333.00;;;;5043403;28;20281;-75
2022/12/26 12:56:36;;;;;;;0.10;0.10;;;11.20;99.90;226.50;231333.00;;;;5044473;28;20214;-73
2022/12/26 12:59:31;;;;;;;0.10;0.10;;;11.10;99.90;226.50;231333.00;;;;5048557;28;20230;-74
2022/12/26 13:02:09;;;;;;;0.10;0.10;;;11.00;99.90;226.50;231333.00;;;;5039362;28;20195;-73
2022/12/26 13:04:54;;;;;;;0.10;0.10;;;10.90;99.90;226.50;231333.00;;;;5042149;28;20288;-73
2022/12/26 13:07:31;;;;;;;0.10;0.10;;;11.00;99.90;226.50;231333.00;;;;5026865;28;20222;-71
2022/12/26 13:10:06;;;;;;;0.00;0.00;;;11.00;99.90;226.50;231333.00;;;;5033307;28;20234;-71
2022/12/26 13:12:40;;;;;;;0.00;0.00;;;11.10;99.90;226.50;231333.00;;;;5039086;28;20190;-70
2022/12/26 13:15:21;;;;;;;0.10;0.10;;;11.10;99.90;226.50;231333.00;;;;5042093;28;20199;-71
2022/12/26 13:17:59;;;;;;;0.00;0.00;;;11.10;99.90;226.50;231333.00;;;;5045036;28;20218;-71
2022/12/26 13:20:38;;;;;;;0.00;0.00;;;11.10;99.90;226.50;231333.00;;;;5032757;28;20674;-73